dimanche 16 avril 2017

Sur les traces de David - 8.100km - Valhuon


Sur les traces de David - 13.450km - Valhuon


Sur les traces de David - 20.150km - Valhuon


Sur les traces de David - 37.9km - Valhuon

SUR LES TRACES DE DAVID
  08:33:27 93 classés 37,900 km
POS DOS SEXE NOM CLUB TEMPS REEL VIT MOY CAT PL.
1 3 ANSELIN LOIC AC SAINT POLOIS 02:31:29 02:31:29 15,012 04:00 SE H 1
2 1 BOUTON RAPHAEL SERVINS ATHLETIC CLUB 02:34:33 02:34:33 14,714 04:05 SE H 2
3 93 VANDEN DORPE THIBAUT 02:35:17 02:35:17 14,644 04:06 SE H 3
4 2 MEURILLON HERVE ARTOIS ATHLETISME 02:39:09 02:39:09 14,288 04:12 V2 H 1
5 5 FIEVET GUILLAUME ARTOIS ATHLETISME 02:40:27 02:40:27 14,173 04:14 SE H 4
6 6 PSICA KARL CH'TRAILERS TEAM 62 02:41:56 02:41:56 14,043 04:16 SE H 5
7 4 CUVELIER ARNAUD LILLE TRIATHLON 02:42:45 02:42:45 13,972 04:18 SE H 6
8 77 POTTEEUW HAROLD CLLL ARMENTIERES 02:43:08 02:43:08 13,940 04:18 V1 H 1
9 22 DAMBRUNE JULIEN 02:44:12 02:44:12 13,849 04:20 SE H 7
10 80 ROBILLART MIGUEL SERVINS ATHLETIC CLUB 02:44:57 02:44:57 13,786 04:21 SE H 8
11 8 BARBIER LUDOVIC 02:50:09 02:50:09 13,365 04:29 SE H 9
12 73 PANNIER GREGORY HORLOGEUX CARVIN 02:51:50 02:51:50 13,234 04:32 SE H 10
13 64 MAYEUX CHRISTOPHE ARTOIS ATHLETISME 02:55:04 02:55:04 12,989 04:37 V1 H 2
14 90 TAUPIER CEDRIC ENAA ASG GAUCHY 02:55:37 02:55:37 12,949 04:38 V1 H 3
15 44 GLACON GUILLAUME ASDH 03:03:52 03:03:52 12,368 04:51 SE H 11
16 66 MILETTI GERALD 03:04:00 03:04:00 12,359 04:51 V1 H 4
17 48 HERMETZ CLAUDE ASDH 03:04:58 03:04:58 12,294 04:53 V3 H 1
18 85 SALINGUE GEOFFREY 03:05:08 03:05:08 12,283 04:53 SE H 12
19 26 DELERUE CEDRIC 03:05:37 03:05:37 12,251 04:54 SE H 13
20 70 NAWROT TONY 03:11:11 03:11:11 11,894 05:03 SE H 14
21 40 GAIGNEUR DIMITRI ARTOIS ATHLETISME 03:11:12 03:11:12 11,893 05:03 V1 H 5
22 71 NEVEU JACQUES 03:11:14 03:11:14 11,891 05:03 V3 H 2
23 96 VEREECKE VALENTIN 03:11:38 03:11:38 11,866 05:03 SE H 15
24 89 TASIEMSKI PATRICK ARTOIS ATHLETISME 03:12:23 03:12:23 11,820 05:05 V1 H 6
25 97 WENZEL SYLVAIN CH'TRAILERS TEAM 62 03:12:23 03:12:23 11,820 05:05 V1 H 7
26 99 WITKOWSKI YOANN CH'TRAILERS TEAM 62 03:12:23 03:12:23 11,820 05:05 SE H 16
27 53 L'HOMME RAYNALD CH'TRAILERS TEAM62 03:12:37 03:12:37 11,806 05:05 V1 H 8
28 94 VANDENKERCKHOVE HUGUES 03:14:25 03:14:25 11,697 05:08 V1 H 9
29 902 JEANROY EMMANUEL 03:14:40 03:14:40 11,682 05:08 V1 H 10
30 49 HOLLE LIONEL 03:16:13 03:16:13 11,589 05:11 SE H 17
31 37 FLAMENT MAURICE 03:17:10 03:17:10 11,533 05:12 V1 H 11
32 51 JEULIN BENOIT 03:17:22 03:17:22 11,522 05:12 SE H 18
33 61 F MARTEL SANDRINE ARTOIS ATHLETISME 03:19:34 03:19:34 11,395 05:16 V1 F 1
34 32 DHEDIN FABRICE 03:20:35 03:20:35 11,337 05:18 V1 H 12
35 10 BELLET JEAN-FRANÇOIS LYS CALAIS TRIATHLON 03:22:26 03:22:26 11,233 05:20 V1 H 13
36 19 F CARON AURELIE 03:23:50 03:23:50 11,156 05:23 SE F 1
37 16 BREMBOR THOMAS RC ARRAS 03:24:28 03:24:28 11,122 05:24 SE H 19
38 60 LIENARD BENOIT DAINVILLE ATHLETIC CLUB 03:24:29 03:24:29 11,121 05:24 V1 H 14
39 52 KUYSTERMANS TOM 03:25:06 03:25:06 11,087 05:25 V1 H 15
40 36 FARDEL EDDY 03:28:46 03:28:46 10,893 05:31 V1 H 16
41 69 NAPIERALA NICOLAS TOUS AZIMUTS DOUAI 03:29:53 03:29:53 10,835 05:32 ES H 1
42 72 NOREZ KEVIN 03:34:32 03:34:32 10,600 05:40 SE H 20
43 65 MIGASZEWSKI FRANCK 03:34:40 03:34:40 10,593 05:40 V1 H 17
44 100 BOUTILLIER JEAN-PHILIPPE 03:34:40 03:34:40 10,593 05:40 V2 H 2
45 47 HERMANT PHILIPPE 03:35:18 03:35:18 10,562 05:41 V2 H 3
46 33 DHESSE LUDOVIC BETHUNE ATHLETISME 03:38:03 03:38:03 10,429 05:45 SE H 21
47 905 SOUVERAIN VINCENT 03:38:16 03:38:16 10,418 05:46 V1 H 18
48 35 DUHAUTOIS SYLVAIN SAINT VENANT ATHLE 03:39:04 03:39:04 10,380 05:47 SE H 22
49 56 LEBLANC GERALD 03:39:13 03:39:13 10,373 05:47 V1 H 19
50 79 F RIMETZ HELENE BETHUNE ATHLETISME 03:39:24 03:39:24 10,365 05:47 SE F 2
51 31 DHALLEINE JONATHAN 03:40:19 03:40:19 10,322 05:49 SE H 23
52 41 GALVAIRE CHRISTOPHE CH'TRAILERS TEAM 62 03:40:32 03:40:32 10,311 05:49 V2 H 4
53 39 FOURNIER GUILAIN ARTOIS ATHLETISME 03:40:45 03:40:45 10,301 05:49 V2 H 5
54 59 LEQUIEN BASTIEN 03:41:00 03:41:00 10,290 05:50 SE H 24
55 42 GAUVIN THIERRY VAUX LE PENIL ATHLÉTISME 03:41:11 03:41:11 10,281 05:50 SE H 25
56 92 F VANDEKAN SYLVIE RADIO HORIZON 03:41:23 03:41:23 10,272 05:50 V1 F 2
57 903 MOUTON GEOFFROY TEAM ST YORRE 03:41:23 03:41:23 10,272 05:50 SE H 26
58 98 WILLEBIEN DAVID DOUAI SIN ATHLETISME 03:41:38 03:41:38 10,260 05:51 V2 H 6
59 21 CRESSENT GABRIEL ARTOIS ATHLETISME 03:41:51 03:41:51 10,250 05:51 SE H 27
60 54 LABITTE GREGORY 03:41:51 03:41:51 10,250 05:51 V1 H 20
61 81 F ROJEWSKI AURELIE RUNNING'GROUP 03:41:51 03:41:51 10,250 05:51 SE F 3
62 91 THOREZ REGIS PLANETE RUNNING&WALKING 03:43:05 03:43:05 10,193 05:53 V1 H 21
63 57 LENGLIN PASCAL CH'TRAILERS TEAM 62 03:43:40 03:43:40 10,167 05:54 V2 H 7
64 27 DELVAL JEROME RUNNING'GROUP 03:45:00 03:45:00 10,107 05:56 SE H 28
65 46 HERLEIN JEAN-MARC 03:47:13 03:47:13 10,008 06:00 V2 H 8
66 904 F RAOULT ALEXANDRA 03:48:11 03:48:11 9,966 06:01 SE F 4
67 62 MARTIN FREDERIC 03:51:11 03:51:11 9,836 06:06 V1 H 22
68 14 BOULET SYLVAIN 03:51:32 03:51:32 9,821 06:07 SE H 29
69 34 DRUON CEDRIC 03:51:38 03:51:38 9,817 06:07 SE H 30
70 63 MARTIN GREGORY ARTOIS ATHLETISME 03:53:37 03:53:37 9,734 06:10 SE H 31
71 30 DHAINAUT JEROME 03:54:12 03:54:12 9,710 06:11 V1 H 23
72 86 STACHON GUILLAUME RC ARRAS 03:55:48 03:55:48 9,644 06:13 V1 H 24
73 55 LANTOINE PIERRE RC ARRAS 03:56:02 03:56:02 9,634 06:14 SE H 32
74 12 BERNARD ALAIN 03:56:55 03:56:55 9,598 06:15 V3 H 3
75 87 STRYVEN HERVE 03:56:58 03:56:58 9,596 06:15 V2 H 9
76 83 ROUSSEL CHRISTIAN FOOTING CLUB BOURS 03:59:02 03:59:02 9,513 06:18 V2 H 10
77 13 BOCHU MICHEL 03:59:55 03:59:55 9,478 06:20 V2 H 11
78 74 PAVY SAMUEL 04:01:45 04:01:45 9,406 06:23 V2 H 12
79 28 DERICBOURG BENOIT LES COURANTS D'AIR VALHUON 04:04:44 04:04:44 9,292 06:27 SE H 33
80 24 DE BUF OLIVIER 04:05:16 04:05:16 9,272 06:28 V2 H 13
81 29 DERUY THOMAS 04:05:33 04:05:33 9,261 06:29 SE H 34
82 23 DASSONVILLE FREDERIC ARTOIS ATHLETISME 04:06:34 04:06:34 9,223 06:30 V1 H 25
83 95 VANDERBERG GERARD 04:09:55 04:09:55 9,099 06:36 V1 H 26
84 901 F DUQUESNE SOPHIE 04:11:33 04:11:33 9,040 06:38 SE F 5
85 38 FOUGNIES GUILLAUME 04:14:58 04:14:58 8,919 06:44 SE H 35
86 88 TALLEUX SEBASTIEN 04:14:59 04:14:59 8,918 06:44 V1 H 27
87 45 GWARDYS THOMAS ARTOIS ATHLETISME 04:21:03 04:21:03 8,711 06:53 V1 H 28
88 76 F PIERROT JESSICA ARTOIS ATHLETISME 04:21:03 04:21:03 8,711 06:53 SE F 6
89 9 F BELLET ANA LYS CALAIS TRIATHLON 04:21:36 04:21:36 8,693 06:54 V2 F 1
90 67 MOLIN SEBASTIEN 04:30:25 04:30:25 8,409 07:08 V1 H 29
91 17 CABUZEL SEBASTIEN 04:43:53 04:43:53 8,010 07:29 SE H 36
92 7 AMEL BOUMEDIENNE 04:46:16 04:46:16 7,944 07:33 V2 H 14
93 84 RUCHON STEPHANE 04:47:33 04:47:33 7,908 07:35 SE H 37